createdAt,value
2018-02-10T00:00:55.576Z,-0.63
2018-02-10T00:01:55.567Z,-0.66
2018-02-10T00:02:55.560Z,-0.57
2018-02-10T00:03:55.552Z,-0.62
2018-02-10T00:04:55.549Z,-0.59
2018-02-10T00:05:55.552Z,-0.57
2018-02-10T00:06:55.523Z,-0.63
2018-02-10T00:07:55.516Z,-0.62
2018-02-10T00:08:55.506Z,-0.62
2018-02-10T00:09:55.495Z,-0.69
2018-02-10T00:10:55.490Z,-0.66
2018-02-10T00:11:55.483Z,-0.66
2018-02-10T00:12:55.485Z,-0.66
2018-02-10T00:13:55.494Z,-0.66
2018-02-10T00:14:55.457Z,-0.63
2018-02-10T00:15:55.451Z,-0.63
2018-02-10T00:16:55.435Z,-0.66
2018-02-10T00:17:55.438Z,-0.62
2018-02-10T00:18:55.433Z,-0.69
2018-02-10T00:19:55.426Z,-0.68
2018-02-10T00:20:55.404Z,-0.54
2018-02-10T00:21:55.393Z,-0.52
2018-02-10T00:22:55.386Z,-0.69
2018-02-10T00:23:55.375Z,-0.59
2018-02-10T00:24:55.366Z,-0.63
2018-02-10T00:25:55.405Z,-0.60
2018-02-10T00:26:55.392Z,-0.66
2018-02-10T00:27:55.397Z,-0.65
2018-02-10T00:28:55.410Z,-0.65
2018-02-10T00:29:55.381Z,-0.77
2018-02-10T00:30:55.358Z,-0.66
2018-02-10T00:31:55.363Z,-0.66
2018-02-10T00:32:55.329Z,-0.72
2018-02-10T00:33:55.335Z,-0.72
2018-02-10T00:34:55.337Z,-0.68
2018-02-10T00:35:55.305Z,-0.70
2018-02-10T00:36:55.291Z,-0.69
2018-02-10T00:37:55.376Z,-0.70
2018-02-10T00:38:55.284Z,-0.70
2018-02-10T00:39:55.247Z,-0.72
2018-02-10T00:40:55.268Z,-0.75
2018-02-10T00:41:55.230Z,-0.69
2018-02-10T00:42:55.239Z,-0.72
2018-02-10T00:43:55.198Z,-0.75
2018-02-10T00:44:55.212Z,-0.69
2018-02-10T00:45:55.241Z,-0.69
2018-02-10T00:46:55.185Z,-0.75
2018-02-10T00:47:55.163Z,-0.80
2018-02-10T00:48:55.154Z,-0.78
2018-02-10T00:49:55.144Z,-0.83
2018-02-10T00:50:55.134Z,-0.84
2018-02-10T00:51:55.141Z,-0.84
2018-02-10T00:52:55.119Z,-0.80
2018-02-10T00:53:55.122Z,-0.83
2018-02-10T00:54:55.111Z,-0.80
2018-02-10T00:55:55.090Z,-0.84
2018-02-10T00:56:55.078Z,-0.83
2018-02-10T00:57:55.072Z,-0.75
2018-02-10T00:58:55.060Z,-0.78
2018-02-10T00:59:55.050Z,-0.83
2018-02-10T01:00:55.042Z,-0.80
2018-02-10T01:01:55.042Z,-0.73
2018-02-10T01:02:55.022Z,-0.80
2018-02-10T01:03:55.019Z,-0.75
2018-02-10T01:04:55.009Z,-0.70
2018-02-10T01:05:54.995Z,-0.83
2018-02-10T01:06:54.994Z,-0.87
2018-02-10T01:07:54.977Z,-0.83
2018-02-10T01:08:54.970Z,-0.81
2018-02-10T01:09:54.961Z,-0.83
2018-02-10T01:10:54.953Z,-0.73
2018-02-10T01:11:54.944Z,-0.78
2018-02-10T01:12:54.929Z,-0.80
2018-02-10T01:13:54.929Z,-0.72
2018-02-10T01:14:54.910Z,-0.73
2018-02-10T01:15:54.899Z,-0.69
2018-02-10T01:16:54.896Z,-0.72
2018-02-10T01:17:54.886Z,-0.77
2018-02-10T01:18:54.875Z,-0.70
2018-02-10T01:19:54.865Z,-0.70
2018-02-10T01:20:54.855Z,-0.73
2018-02-10T01:21:54.845Z,-0.72
2018-02-10T01:22:54.838Z,-0.69
2018-02-10T01:23:54.846Z,-0.86
2018-02-10T01:24:54.816Z,-0.80
2018-02-10T01:25:54.813Z,-0.81
2018-02-10T01:26:54.800Z,-0.81
2018-02-10T01:27:54.792Z,-0.78
2018-02-10T01:28:54.781Z,-0.81
2018-02-10T01:29:54.776Z,-0.83
2018-02-10T01:30:54.762Z,-0.75
2018-02-10T01:31:54.753Z,-0.72
2018-02-10T01:32:54.743Z,-0.75
2018-02-10T01:33:54.734Z,-0.83
2018-02-10T01:34:54.724Z,-0.75
2018-02-10T01:35:54.714Z,-0.78
2018-02-10T01:36:54.708Z,-0.69
2018-02-10T01:37:54.699Z,-0.72
2018-02-10T01:38:54.757Z,-0.72
2018-02-10T01:39:54.688Z,-0.77
2018-02-10T01:40:55.292Z,-0.75
2018-02-10T01:41:54.712Z,-0.75
2018-02-10T01:42:54.657Z,-0.75
2018-02-10T01:43:54.643Z,-0.73
2018-02-10T01:44:54.637Z,-0.84
2018-02-10T01:45:55.227Z,-0.83
2018-02-10T01:46:54.620Z,-0.83
2018-02-10T01:47:54.608Z,-0.80
2018-02-10T01:48:54.593Z,-0.77
2018-02-10T01:49:54.588Z,-0.75
2018-02-10T01:50:54.582Z,-0.72
2018-02-10T01:51:54.566Z,-0.84
2018-02-10T01:52:54.561Z,-0.83
2018-02-10T01:53:54.550Z,-0.80
2018-02-10T01:54:55.214Z,-0.75
2018-02-10T01:55:54.532Z,-0.69
2018-02-10T01:56:54.522Z,-0.70
2018-02-10T01:57:54.512Z,-0.70
2018-02-10T01:58:54.501Z,-0.73
2018-02-10T01:59:54.493Z,-0.75
2018-02-10T02:00:55.217Z,-0.75
2018-02-10T02:01:54.481Z,-0.72
2018-02-10T02:02:54.491Z,-0.70
2018-02-10T02:03:54.454Z,-0.73
2018-02-10T02:04:54.449Z,-0.72
2018-02-10T02:05:54.437Z,-0.66
2018-02-10T02:06:54.428Z,-0.70
2018-02-10T02:07:54.421Z,-0.78
2018-02-10T02:08:54.416Z,-0.72
2018-02-10T02:09:54.402Z,-0.72
2018-02-10T02:10:54.393Z,-0.73
2018-02-10T02:11:54.384Z,-0.66
2018-02-10T02:12:54.376Z,-0.72
2018-02-10T02:13:54.363Z,-0.69
2018-02-10T02:14:54.361Z,-0.69
2018-02-10T02:15:54.346Z,-0.66
2018-02-10T02:16:54.338Z,-0.69
2018-02-10T02:17:54.331Z,-0.66
2018-02-10T02:18:54.318Z,-0.70
2018-02-10T02:19:54.308Z,-0.72
2018-02-10T02:20:54.303Z,-0.73
2018-02-10T02:21:54.294Z,-0.69
2018-02-10T02:22:54.282Z,-0.69
2018-02-10T02:23:54.271Z,-0.65
2018-02-10T02:24:54.264Z,-0.70
2018-02-10T02:25:54.268Z,-0.65
2018-02-10T02:26:54.249Z,-0.65
2018-02-10T02:27:54.235Z,-0.63
2018-02-10T02:28:54.225Z,-0.66
2018-02-10T02:29:54.224Z,-0.66
2018-02-10T02:30:54.207Z,-0.69
2018-02-10T02:31:54.197Z,-0.65
2018-02-10T02:32:54.713Z,-0.63
2018-02-10T02:33:54.194Z,-0.66
2018-02-10T02:34:54.720Z,-0.70
2018-02-10T02:35:54.716Z,-0.68
2018-02-10T02:36:54.717Z,-0.72
2018-02-10T02:37:54.713Z,-0.63
2018-02-10T02:38:54.152Z,-0.65
2018-02-10T02:39:54.142Z,-0.65
2018-02-10T02:40:54.115Z,-0.62
2018-02-10T02:41:54.113Z,-0.69
2018-02-10T02:42:54.104Z,-0.66
2018-02-10T02:43:54.092Z,-0.70
2018-02-10T02:44:54.089Z,-0.65
2018-02-10T02:45:54.105Z,-0.65
2018-02-10T02:46:54.069Z,-0.63
2018-02-10T02:47:54.055Z,-0.63
2018-02-10T02:48:54.067Z,-0.63
2018-02-10T02:49:54.046Z,-0.63
2018-02-10T02:50:54.057Z,-0.69
2018-02-10T02:51:54.047Z,-0.63
2018-02-10T02:52:54.016Z,-0.68
2018-02-10T02:53:54.001Z,-0.60
2018-02-10T02:54:54.029Z,-0.63
2018-02-10T02:55:54.013Z,-0.60
2018-02-10T02:56:54.031Z,-0.62
2018-02-10T02:57:54.000Z,-0.65
2018-02-10T02:58:53.976Z,-0.66
2018-02-10T02:59:53.948Z,-0.63
2018-02-10T03:00:53.955Z,-0.62
2018-02-10T03:01:53.955Z,-0.65
2018-02-10T03:02:53.918Z,-0.52
2018-02-10T03:03:53.940Z,-0.63
2018-02-10T03:04:53.913Z,-0.60
2018-02-10T03:05:53.892Z,-0.63
2018-02-10T03:06:53.885Z,-0.65
2018-02-10T03:07:53.876Z,-0.55
2018-02-10T03:08:53.864Z,-0.60
2018-02-10T03:09:53.887Z,-0.66
2018-02-10T03:10:53.861Z,-0.57
2018-02-10T03:11:53.839Z,-0.62
2018-02-10T03:12:53.831Z,-0.60
2018-02-10T03:13:53.898Z,-0.57
2018-02-10T03:14:53.849Z,-0.63
2018-02-10T03:15:53.813Z,-0.54
2018-02-10T03:16:53.828Z,-0.50
2018-02-10T03:17:53.795Z,-0.45
2018-02-10T03:18:53.779Z,-0.51
2018-02-10T03:19:53.769Z,-0.50
2018-02-10T03:20:53.762Z,-0.51
2018-02-10T03:21:53.747Z,-0.62
2018-02-10T03:22:53.743Z,-0.62
2018-02-10T03:23:53.735Z,-0.52
2018-02-10T03:24:53.726Z,-0.52
2018-02-10T03:25:53.743Z,-0.51
2018-02-10T03:26:53.744Z,-0.45
2018-02-10T03:27:53.723Z,-0.54
2018-02-10T03:28:53.686Z,-0.57
2018-02-10T03:29:53.697Z,-0.48
2018-02-10T03:30:53.674Z,-0.51
2018-02-10T03:31:53.659Z,-0.48
2018-02-10T03:32:53.653Z,-0.62
2018-02-10T03:33:53.640Z,-0.60
2018-02-10T03:34:53.633Z,-0.55
2018-02-10T03:35:53.623Z,-0.55
2018-02-10T03:36:53.619Z,-0.57
2018-02-10T03:37:53.609Z,-0.57
2018-02-10T03:38:53.601Z,-0.57
2018-02-10T03:39:53.592Z,-0.57
2018-02-10T03:40:53.579Z,-0.54
2018-02-10T03:41:53.606Z,-0.54
2018-02-10T03:42:53.561Z,-0.59
2018-02-10T03:43:53.553Z,-0.59
2018-02-10T03:44:53.543Z,-0.60
2018-02-10T03:45:53.532Z,-0.57
2018-02-10T03:46:53.526Z,-0.66
2018-02-10T03:47:53.521Z,-0.60
2018-02-10T03:48:53.510Z,-0.62
2018-02-10T03:49:53.499Z,-0.55
2018-02-10T03:50:53.489Z,-0.60
2018-02-10T03:51:53.478Z,-0.55
2018-02-10T03:52:53.474Z,-0.59
2018-02-10T03:53:53.459Z,-0.54
2018-02-10T03:54:53.451Z,-0.57
2018-02-10T03:55:53.440Z,-0.59
2018-02-10T03:56:53.437Z,-0.57
2018-02-10T03:57:53.423Z,-0.57
2018-02-10T03:58:53.418Z,-0.57
2018-02-10T03:59:53.409Z,-0.70
2018-02-10T04:00:53.400Z,-0.65
2018-02-10T04:01:53.393Z,-0.63
2018-02-10T04:02:53.377Z,-0.63
2018-02-10T04:03:53.371Z,-0.68
2018-02-10T04:04:53.363Z,-0.66
2018-02-10T04:05:53.373Z,-0.63
2018-02-10T04:06:53.344Z,-0.60
2018-02-10T04:07:53.336Z,-0.63
2018-02-10T04:08:53.327Z,-0.63
2018-02-10T04:09:53.318Z,-0.66
2018-02-10T04:10:53.309Z,-0.65
2018-02-10T04:11:53.315Z,-0.75
2018-02-10T04:12:53.295Z,-0.63
2018-02-10T04:13:53.297Z,-0.59
2018-02-10T04:14:53.269Z,-0.60
2018-02-10T04:15:53.260Z,-0.65
2018-02-10T04:16:53.326Z,-0.62
2018-02-10T04:17:53.254Z,-0.60
2018-02-10T04:18:53.237Z,-0.68
2018-02-10T04:19:53.225Z,-0.69
2018-02-10T04:20:53.222Z,-0.54
2018-02-10T04:21:53.207Z,-0.63
2018-02-10T04:22:53.199Z,-0.57
2018-02-10T04:23:53.190Z,-0.55
2018-02-10T04:24:53.179Z,-0.55
2018-02-10T04:25:53.172Z,-0.55
2018-02-10T04:26:53.165Z,-0.52
2018-02-10T04:27:53.152Z,-0.57
2018-02-10T04:28:53.146Z,-0.59
2018-02-10T04:29:53.139Z,-0.57
2018-02-10T04:30:53.135Z,-0.59
2018-02-10T04:31:53.115Z,-0.62
2018-02-10T04:32:53.134Z,-0.59
2018-02-10T04:33:53.098Z,-0.60
2018-02-10T04:34:53.089Z,-0.60
2018-02-10T04:35:53.079Z,-0.57
2018-02-10T04:36:53.078Z,-0.50
2018-02-10T04:37:53.070Z,-0.50
2018-02-10T04:38:53.085Z,-0.62
2018-02-10T04:39:53.043Z,-0.50
2018-02-10T04:40:53.036Z,-0.55
2018-02-10T04:41:53.029Z,-0.47
2018-02-10T04:42:53.018Z,-0.51
2018-02-10T04:43:53.017Z,-0.50
2018-02-10T04:44:53.000Z,-0.48
2018-02-10T04:45:52.996Z,-0.51
2018-02-10T04:46:52.986Z,-0.57
2018-02-10T04:47:52.979Z,-0.50
2018-02-10T04:48:52.974Z,-0.52
2018-02-10T04:49:52.955Z,-0.59
2018-02-10T04:50:52.950Z,-0.50
2018-02-10T04:51:52.938Z,-0.54
2018-02-10T04:52:52.930Z,-0.50
2018-02-10T04:53:52.945Z,-0.42
2018-02-10T04:54:52.909Z,-0.48
2018-02-10T04:55:52.908Z,-0.47
2018-02-10T04:56:52.890Z,-0.41
2018-02-10T04:57:52.889Z,-0.41
2018-02-10T04:58:52.876Z,-0.48
2018-02-10T04:59:52.870Z,-0.45
2018-02-10T05:00:52.858Z,-0.42
2018-02-10T05:01:52.853Z,-0.42
2018-02-10T05:02:52.846Z,-0.42
2018-02-10T05:03:52.835Z,-0.47
2018-02-10T05:04:52.821Z,-0.47
2018-02-10T05:05:52.821Z,-0.44
2018-02-10T05:06:52.808Z,-0.47
2018-02-10T05:07:52.799Z,-0.39
2018-02-10T05:08:52.801Z,-0.36
2018-02-10T05:09:52.782Z,-0.48
2018-02-10T05:10:52.769Z,-0.44
2018-02-10T05:11:52.776Z,-0.37
2018-02-10T05:12:52.769Z,-0.45
2018-02-10T05:13:52.747Z,-0.39
2018-02-10T05:14:52.732Z,-0.37
2018-02-10T05:15:52.723Z,-0.45
2018-02-10T05:16:52.716Z,-0.47
2018-02-10T05:17:52.710Z,-0.42
2018-02-10T05:18:52.706Z,-0.45
2018-02-10T05:19:52.689Z,-0.45
2018-02-10T05:20:52.682Z,-0.39
2018-02-10T05:21:52.673Z,-0.45
2018-02-10T05:22:52.673Z,-0.42
2018-02-10T05:23:52.654Z,-0.42
2018-02-10T05:24:52.652Z,-0.37
2018-02-10T05:25:52.646Z,-0.41
2018-02-10T05:26:52.631Z,-0.37
2018-02-10T05:27:52.625Z,-0.44
2018-02-10T05:28:52.616Z,-0.42
2018-02-10T05:29:52.609Z,-0.42
2018-02-10T05:30:52.602Z,-0.41
2018-02-10T05:31:52.602Z,-0.41
2018-02-10T05:32:52.576Z,-0.34
2018-02-10T05:33:52.575Z,-0.34
2018-02-10T05:34:52.561Z,-0.31
2018-02-10T05:35:52.557Z,-0.42
2018-02-10T05:36:52.548Z,-0.36
2018-02-10T05:37:52.539Z,-0.31
2018-02-10T05:38:52.530Z,-0.37
2018-02-10T05:39:52.517Z,-0.31
2018-02-10T05:40:52.521Z,-0.48
2018-02-10T05:41:52.502Z,-0.34
2018-02-10T05:42:53.215Z,-0.45
2018-02-10T05:43:52.490Z,-0.45
2018-02-10T05:44:52.480Z,-0.42
2018-02-10T05:45:53.248Z,-0.37
2018-02-10T05:46:53.216Z,-0.45
2018-02-10T05:47:52.454Z,-0.41
2018-02-10T05:48:52.446Z,-0.36
2018-02-10T05:49:52.461Z,-0.41
2018-02-10T05:50:52.428Z,-0.31
2018-02-10T05:51:52.426Z,-0.34
2018-02-10T05:52:52.409Z,-0.29
2018-02-10T05:53:52.399Z,-0.33
2018-02-10T05:54:52.391Z,-0.31
2018-02-10T05:55:52.385Z,-0.37
2018-02-10T05:57:29.180Z,-0.27
2018-02-10T05:58:29.172Z,-0.31
2018-02-10T06:00:23.516Z,-0.26
2018-02-10T06:01:23.438Z,-0.29
2018-02-10T06:03:18.836Z,-0.29
2018-02-10T06:04:18.755Z,-0.27
2018-02-10T06:06:13.367Z,-0.33
2018-02-10T06:07:13.119Z,-0.31
2018-02-10T06:08:13.099Z,-0.29
2018-02-10T06:09:13.096Z,-0.30
2018-02-10T06:10:13.047Z,-0.27
2018-02-10T06:11:13.038Z,-0.30
2018-02-10T06:12:13.023Z,-0.29
2018-02-10T06:13:13.016Z,-0.26
2018-02-10T06:14:13.026Z,-0.30
2018-02-10T06:15:12.996Z,-0.26
2018-02-10T06:16:13.092Z,-0.23
2018-02-10T06:17:12.998Z,-0.33
2018-02-10T06:18:12.975Z,-0.33
2018-02-10T06:19:12.968Z,-0.22
2018-02-10T06:20:12.964Z,-0.27
2018-02-10T06:21:12.952Z,-0.27
2018-02-10T06:22:12.968Z,-0.23
2018-02-10T06:23:12.934Z,-0.18
2018-02-10T06:24:12.929Z,-0.19
2018-02-10T06:25:12.919Z,-0.19
2018-02-10T06:26:12.910Z,-0.19
2018-02-10T06:27:12.899Z,-0.22
2018-02-10T06:28:12.897Z,-0.12
2018-02-10T06:29:12.880Z,-0.19
2018-02-10T06:30:12.870Z,-0.23
2018-02-10T06:31:12.876Z,-0.18
2018-02-10T06:32:12.863Z,-0.18
2018-02-10T06:33:12.850Z,-0.16
2018-02-10T06:34:12.862Z,-0.19
2018-02-10T06:35:12.893Z,-0.15
2018-02-10T06:36:12.910Z,-0.18
2018-02-10T06:37:12.863Z,-0.13
2018-02-10T06:38:12.850Z,-0.19
2018-02-10T06:39:12.799Z,-0.16
2018-02-10T06:40:12.797Z,-0.13
2018-02-10T06:41:12.784Z,-0.13
2018-02-10T06:42:12.769Z,-0.15
2018-02-10T06:43:12.779Z,-0.13
2018-02-10T06:44:12.841Z,-0.12
2018-02-10T06:45:12.797Z,-0.11
2018-02-10T06:46:12.760Z,-0.11
2018-02-10T06:47:12.735Z,-0.08
2018-02-10T06:48:12.740Z,-0.08
2018-02-10T06:49:12.715Z,-0.09
2018-02-10T06:50:12.777Z,-0.12
2018-02-10T06:51:12.722Z,-0.11
2018-02-10T06:52:12.844Z,-0.13
2018-02-10T06:53:12.684Z,-0.09
2018-02-10T06:54:12.715Z,-0.09
2018-02-10T06:55:12.762Z,-0.08
2018-02-10T06:56:12.821Z,-0.11
2018-02-10T06:57:12.783Z,-0.05
2018-02-10T06:58:12.736Z,-0.11
2018-02-10T06:59:12.639Z,-0.08
2018-02-10T07:00:12.688Z,-0.04
2018-02-10T07:01:12.684Z,-0.06
2018-02-10T07:02:12.641Z,-0.09
2018-02-10T07:03:12.610Z,-0.09
2018-02-10T07:04:12.592Z,-0.06
2018-02-10T07:05:12.575Z,-0.08
2018-02-10T07:06:12.563Z,-0.08
2018-02-10T07:07:12.555Z,-0.09
2018-02-10T07:08:12.550Z,-0.06
2018-02-10T07:09:12.539Z,-0.06
2018-02-10T07:10:12.538Z,0.00
2018-02-10T07:11:12.522Z,-0.06
2018-02-10T07:12:12.514Z,-0.04
2018-02-10T07:13:12.502Z,-0.09
2018-02-10T07:14:12.508Z,-0.04
2018-02-10T07:15:12.615Z,0.03
2018-02-10T07:16:13.212Z,0.02
2018-02-10T07:17:12.486Z,-0.01
2018-02-10T07:18:12.495Z,0.02
2018-02-10T07:19:12.486Z,0.03
2018-02-10T07:20:12.449Z,-0.05
2018-02-10T07:21:12.445Z,0.06
2018-02-10T07:22:12.438Z,-0.01
2018-02-10T07:23:12.515Z,0.05
2018-02-10T07:24:12.412Z,0.05
2018-02-10T07:25:12.451Z,0.09
2018-02-10T07:26:12.397Z,0.03
2018-02-10T07:27:13.492Z,0.05
2018-02-10T07:28:12.406Z,0.06
2018-02-10T07:29:12.369Z,0.06
2018-02-10T07:30:12.361Z,0.02
2018-02-10T07:31:12.355Z,0.06
2018-02-10T07:32:12.348Z,0.06
2018-02-10T07:33:12.377Z,0.00
2018-02-10T07:34:12.331Z,0.05
2018-02-10T07:35:12.320Z,0.20
2018-02-10T07:36:21.202Z,0.13
2018-02-10T07:38:06.922Z,0.25
2018-02-10T07:39:06.732Z,0.18
2018-02-10T07:41:01.020Z,0.18
2018-02-10T07:42:01.165Z,0.18
2018-02-10T07:43:55.408Z,0.20
2018-02-10T07:44:55.567Z,0.21
2018-02-10T07:46:50.189Z,0.16
2018-02-10T07:47:50.046Z,0.23
2018-02-10T07:48:50.016Z,0.25
2018-02-10T07:49:49.669Z,0.20
2018-02-10T07:50:49.693Z,0.28
2018-02-10T07:51:50.266Z,0.20
2018-02-10T07:52:51.253Z,0.31
2018-02-10T07:53:49.631Z,0.23
2018-02-10T07:54:49.622Z,0.23
2018-02-10T07:55:49.618Z,0.31
2018-02-10T07:56:49.606Z,0.27
2018-02-10T07:57:49.642Z,0.24
2018-02-10T07:58:49.593Z,0.25
2018-02-10T07:59:49.582Z,0.15
2018-02-10T08:00:49.577Z,0.15
2018-02-10T08:01:49.568Z,0.21
2018-02-10T08:02:49.561Z,0.18
2018-02-10T08:03:49.586Z,0.31
2018-02-10T08:04:49.642Z,0.27
2018-02-10T08:05:49.543Z,0.23
2018-02-10T08:06:49.586Z,0.25
2018-02-10T08:07:49.520Z,0.31
2018-02-10T08:08:49.517Z,0.36
2018-02-10T08:09:51.297Z,0.39
2018-02-10T08:10:49.495Z,0.43
2018-02-10T08:11:49.491Z,0.42
2018-02-10T08:12:49.480Z,0.43
2018-02-10T08:13:49.470Z,0.49
2018-02-10T08:14:49.466Z,0.57
2018-02-10T08:15:49.455Z,0.57
2018-02-10T08:16:49.448Z,0.64
2018-02-10T08:17:49.442Z,0.72
2018-02-10T08:18:49.431Z,0.71
2018-02-10T08:19:49.423Z,0.86
2018-02-10T08:20:49.491Z,0.82
2018-02-10T08:21:49.408Z,0.68
2018-02-10T08:22:49.401Z,0.71
2018-02-10T08:23:49.396Z,0.83
2018-02-10T08:24:49.389Z,0.85
2018-02-10T08:25:49.379Z,0.88
2018-02-10T08:26:49.371Z,1.06
2018-02-10T08:27:49.368Z,1.50
2018-02-10T08:28:49.356Z,2.06
2018-02-10T08:29:49.347Z,2.31
2018-02-10T08:30:49.341Z,2.23
2018-02-10T08:31:49.337Z,2.27
2018-02-10T08:32:49.327Z,2.26
2018-02-10T08:33:49.321Z,2.61
2018-02-10T08:34:49.311Z,3.24
2018-02-10T08:35:49.331Z,3.96
2018-02-10T08:36:49.323Z,4.29
2018-02-10T08:37:49.293Z,4.99
2018-02-10T08:38:49.285Z,5.67
2018-02-10T08:39:49.284Z,6.16
2018-02-10T08:40:49.276Z,6.46
2018-02-10T08:41:49.271Z,6.47
2018-02-10T08:42:49.312Z,6.97
2018-02-10T08:43:51.250Z,7.17
2018-02-10T08:44:49.256Z,7.12
2018-02-10T08:45:49.251Z,7.12
2018-02-10T08:46:49.249Z,6.91
2018-02-10T08:47:49.244Z,6.25
2018-02-10T08:48:49.246Z,5.71
2018-02-10T08:49:49.240Z,5.32
2018-02-10T08:50:49.238Z,5.55
2018-02-10T08:51:49.270Z,5.85
2018-02-10T08:52:49.232Z,6.48
2018-02-10T08:53:49.229Z,6.83
2018-02-10T08:54:49.227Z,7.74
2018-02-10T08:55:49.304Z,8.20
2018-02-10T08:56:49.253Z,8.15
2018-02-10T08:57:49.225Z,8.45
2018-02-10T08:58:49.228Z,8.76
2018-02-10T08:59:49.285Z,9.24
2018-02-10T09:00:49.272Z,9.48
2018-02-10T09:01:49.220Z,8.90
2018-02-10T09:02:49.216Z,8.71
2018-02-10T09:03:49.220Z,9.16
2018-02-10T09:04:49.237Z,8.72
2018-02-10T09:05:51.906Z,8.68
2018-02-10T09:06:51.059Z,8.73
2018-02-10T09:07:49.219Z,8.55
2018-02-10T09:08:49.225Z,8.75
2018-02-10T09:09:49.225Z,9.02
2018-02-10T09:10:49.225Z,8.87
2018-02-10T09:11:49.235Z,8.83
2018-02-10T09:12:52.755Z,8.57
2018-02-10T09:13:49.233Z,8.29
2018-02-10T09:14:49.238Z,8.55
2018-02-10T09:15:49.241Z,7.93
2018-02-10T09:16:49.248Z,8.37
2018-02-10T09:17:49.247Z,8.75
2018-02-10T09:18:49.252Z,8.72
2018-02-10T09:19:49.259Z,8.72
2018-02-10T09:20:51.749Z,8.25
2018-02-10T09:21:49.265Z,8.94
2018-02-10T09:22:49.274Z,9.01
2018-02-10T09:23:49.276Z,9.25
2018-02-10T09:24:49.282Z,9.04
2018-02-10T09:25:49.286Z,9.46
2018-02-10T09:26:49.295Z,9.67
2018-02-10T09:27:49.300Z,9.45
2018-02-10T09:28:49.344Z,9.09
2018-02-10T09:29:49.317Z,9.12
2018-02-10T09:30:49.364Z,8.97
2018-02-10T09:31:49.325Z,8.21
2018-02-10T09:32:49.332Z,8.50
2018-02-10T09:33:49.336Z,8.04
2018-02-10T09:34:49.340Z,7.79
2018-02-10T09:35:49.349Z,7.08
2018-02-10T09:36:49.373Z,6.91
2018-02-10T09:37:49.361Z,7.82
2018-02-10T09:38:49.367Z,8.97
2018-02-10T09:39:49.372Z,9.31
2018-02-10T09:40:49.377Z,8.60
2018-02-10T09:41:49.384Z,9.15
2018-02-10T09:42:49.387Z,8.99
2018-02-10T09:43:49.393Z,8.68
2018-02-10T09:44:49.403Z,8.32
2018-02-10T09:45:49.419Z,7.99
2018-02-10T09:46:52.265Z,8.18
2018-02-10T09:47:49.420Z,8.57
2018-02-10T09:48:49.430Z,8.86
2018-02-10T09:49:49.475Z,9.45
2018-02-10T09:50:49.440Z,8.72
2018-02-10T09:51:49.446Z,8.94
2018-02-10T09:52:49.454Z,9.23
2018-02-10T09:53:49.461Z,9.63
2018-02-10T09:54:49.467Z,9.27
2018-02-10T09:55:49.475Z,9.10
2018-02-10T09:56:49.489Z,8.55
2018-02-10T09:57:49.497Z,8.03
2018-02-10T09:58:49.549Z,8.18
2018-02-10T09:59:51.276Z,8.11
2018-02-10T10:00:49.529Z,8.36
2018-02-10T10:01:49.873Z,8.30
2018-02-10T10:02:49.573Z,7.79
2018-02-10T10:03:49.561Z,7.77
2018-02-10T10:04:49.843Z,8.25
2018-02-10T10:05:51.269Z,7.82
2018-02-10T10:06:49.918Z,7.92
2018-02-10T10:07:49.920Z,7.07
2018-02-10T10:08:49.920Z,6.84
2018-02-10T10:09:49.928Z,7.20
2018-02-10T10:10:49.622Z,6.81
2018-02-10T10:11:49.937Z,6.97
2018-02-10T10:12:49.881Z,6.83
2018-02-10T10:13:49.926Z,6.95
2018-02-10T10:14:50.057Z,6.53
2018-02-10T10:15:50.019Z,6.19
2018-02-10T10:16:49.956Z,6.22
2018-02-10T10:17:49.936Z,5.86
2018-02-10T10:18:58.304Z,5.78
2018-02-10T10:20:45.616Z,5.28
2018-02-10T10:21:44.099Z,5.10
2018-02-10T10:22:44.119Z,4.92
2018-02-10T10:23:44.110Z,5.28
2018-02-10T10:24:44.140Z,5.52
2018-02-10T10:25:44.121Z,5.46
2018-02-10T10:26:44.127Z,5.25
2018-02-10T10:27:44.135Z,5.38
2018-02-10T10:28:44.149Z,5.50
2018-02-10T10:29:44.203Z,5.43
2018-02-10T10:30:44.161Z,5.37
2018-02-10T10:31:44.204Z,5.28
2018-02-10T10:32:56.136Z,5.19
2018-02-10T10:34:38.591Z,5.34
2018-02-10T10:35:38.604Z,5.25
2018-02-10T10:36:38.588Z,5.28
2018-02-10T10:37:38.665Z,5.12
2018-02-10T10:38:38.621Z,4.88
2018-02-10T10:39:38.614Z,4.99
2018-02-10T10:40:38.620Z,5.01
2018-02-10T10:41:51.496Z,5.01
2018-02-10T10:43:33.942Z,5.34
2018-02-10T10:44:33.883Z,5.22
2018-02-10T10:45:33.887Z,5.17
2018-02-10T10:46:33.904Z,4.96
2018-02-10T10:47:33.911Z,4.86
2018-02-10T10:48:33.907Z,4.57
2018-02-10T10:49:33.914Z,4.65
2018-02-10T10:50:33.945Z,4.46
2018-02-10T10:51:33.930Z,4.36
2018-02-10T10:52:33.983Z,4.46
2018-02-10T10:53:34.175Z,4.44
2018-02-10T10:54:34.849Z,4.26
2018-02-10T10:55:34.074Z,4.22
2018-02-10T10:56:34.044Z,4.28
2018-02-10T10:57:33.967Z,4.36
2018-02-10T10:59:28.422Z,4.29
2018-02-10T11:00:28.514Z,4.15
2018-02-10T11:02:22.782Z,4.16
2018-02-10T11:03:22.700Z,4.36
2018-02-10T11:05:17.080Z,4.43
2018-02-10T11:06:17.120Z,4.28
2018-02-10T11:08:11.450Z,4.16
2018-02-10T11:09:11.429Z,4.16
2018-02-10T11:10:11.429Z,4.15
2018-02-10T11:11:11.426Z,4.14
2018-02-10T11:12:11.424Z,4.03
2018-02-10T11:13:11.422Z,4.07
2018-02-10T11:14:11.422Z,4.15
2018-02-10T11:15:11.420Z,4.32
2018-02-10T11:16:11.418Z,4.28
2018-02-10T11:17:11.415Z,4.32
2018-02-10T11:18:11.441Z,4.16
2018-02-10T11:19:11.409Z,3.98
2018-02-10T11:20:11.406Z,3.90
2018-02-10T11:21:11.407Z,3.86
2018-02-10T11:22:11.450Z,3.94
2018-02-10T11:23:11.400Z,3.94
2018-02-10T11:24:11.529Z,3.72
2018-02-10T11:25:11.432Z,3.64
2018-02-10T11:26:11.390Z,3.49
2018-02-10T11:27:11.390Z,3.18
2018-02-10T11:28:11.433Z,3.05
2018-02-10T11:29:11.381Z,2.82
2018-02-10T11:30:11.444Z,2.89
2018-02-10T11:31:11.376Z,2.87
2018-02-10T11:32:11.372Z,3.02
2018-02-10T11:33:11.366Z,2.95
2018-02-10T11:34:11.365Z,3.02
2018-02-10T11:35:11.359Z,3.06
2018-02-10T11:36:11.365Z,3.07
2018-02-10T11:37:11.350Z,3.10
2018-02-10T11:38:11.344Z,2.98
2018-02-10T11:39:11.343Z,2.82
2018-02-10T11:40:11.338Z,2.85
2018-02-10T11:41:11.334Z,2.81
2018-02-10T11:42:12.005Z,2.77
2018-02-10T11:43:11.324Z,2.84
2018-02-10T11:44:11.326Z,2.87
2018-02-10T11:45:11.320Z,2.98
2018-02-10T11:46:11.312Z,3.05
2018-02-10T11:47:11.305Z,3.06
2018-02-10T11:48:11.303Z,3.07
2018-02-10T11:49:11.300Z,2.97
2018-02-10T11:50:11.293Z,2.89
2018-02-10T11:51:11.287Z,2.92
2018-02-10T11:52:11.283Z,2.85
2018-02-10T11:53:11.281Z,2.89
2018-02-10T11:54:11.276Z,2.87
2018-02-10T11:55:11.273Z,2.88
2018-02-10T11:56:11.263Z,2.89
2018-02-10T11:57:11.258Z,2.87
2018-02-10T11:58:11.253Z,2.79
2018-02-10T11:59:11.249Z,2.87
2018-02-10T12:00:11.243Z,2.88
2018-02-10T12:01:11.244Z,2.91
2018-02-10T12:02:11.263Z,2.84
2018-02-10T12:03:11.228Z,2.97
2018-02-10T12:04:11.223Z,3.06
2018-02-10T12:05:11.219Z,3.02
2018-02-10T12:06:11.213Z,3.05
2018-02-10T12:07:11.208Z,3.07
2018-02-10T12:08:11.205Z,2.98
2018-02-10T12:09:11.199Z,3.07
2018-02-10T12:10:11.196Z,3.07
2018-02-10T12:11:11.189Z,3.02
2018-02-10T12:12:11.183Z,3.00
2018-02-10T12:13:11.178Z,2.92
2018-02-10T12:14:11.275Z,2.95
2018-02-10T12:15:11.166Z,2.91
2018-02-10T12:16:11.168Z,2.95
2018-02-10T12:17:11.159Z,3.03
2018-02-10T12:18:11.158Z,3.03
2018-02-10T12:19:11.147Z,2.91
2018-02-10T12:20:11.144Z,2.91
2018-02-10T12:21:11.137Z,3.07
2018-02-10T12:22:11.133Z,3.09
2018-02-10T12:23:11.153Z,3.05
2018-02-10T12:24:11.122Z,3.10
2018-02-10T12:25:11.117Z,3.06
2018-02-10T12:26:11.113Z,3.10
2018-02-10T12:27:11.106Z,3.10
2018-02-10T12:28:11.104Z,3.07
2018-02-10T12:29:11.104Z,3.05
2018-02-10T12:30:11.095Z,3.09
2018-02-10T12:31:11.090Z,2.82
2018-02-10T12:32:11.082Z,2.76
2018-02-10T12:33:11.080Z,2.81
2018-02-10T12:34:11.074Z,2.77
2018-02-10T12:35:11.067Z,2.85
2018-02-10T12:36:11.063Z,2.82
2018-02-10T12:37:11.057Z,2.87
2018-02-10T12:38:11.054Z,3.10
2018-02-10T12:39:11.048Z,3.05
2018-02-10T12:40:11.046Z,3.02
2018-02-10T12:41:11.037Z,2.88
2018-02-10T12:42:11.030Z,2.87
2018-02-10T12:43:11.025Z,2.91
2018-02-10T12:44:11.022Z,3.09
2018-02-10T12:45:11.018Z,3.16
2018-02-10T12:46:11.011Z,3.21
2018-02-10T12:47:11.037Z,3.31
2018-02-10T12:48:11.002Z,3.46
2018-02-10T12:49:10.994Z,3.62
2018-02-10T12:50:11.009Z,3.67
2018-02-10T12:51:10.986Z,3.79
2018-02-10T12:52:10.982Z,3.82
2018-02-10T12:53:10.974Z,3.94
2018-02-10T12:54:10.969Z,3.98
2018-02-10T12:55:10.963Z,4.15
2018-02-10T12:56:10.960Z,4.18
2018-02-10T12:57:10.970Z,4.32
2018-02-10T12:58:10.949Z,4.29
2018-02-10T12:59:10.942Z,4.26
2018-02-10T13:00:10.993Z,4.16
2018-02-10T13:01:10.931Z,4.03
2018-02-10T13:02:10.930Z,3.97
2018-02-10T13:03:10.922Z,3.78
2018-02-10T13:04:10.934Z,3.64
2018-02-10T13:05:10.912Z,3.54
2018-02-10T13:06:10.913Z,3.24
2018-02-10T13:07:10.902Z,3.09
2018-02-10T13:08:10.902Z,2.94
2018-02-10T13:09:10.894Z,2.97
2018-02-10T13:10:10.894Z,2.94
2018-02-10T13:11:10.880Z,2.91
2018-02-10T13:12:10.876Z,2.81
2018-02-10T13:13:10.869Z,2.82
2018-02-10T13:14:10.873Z,2.84
2018-02-10T13:15:10.863Z,2.91
2018-02-10T13:16:10.854Z,3.09
2018-02-10T13:17:10.849Z,3.12
2018-02-10T13:18:10.850Z,3.18